Time;durP1;ratioP1;P1;durP2;ratioP2;P2;SDS_P1;SDS_P2;PMS_P1;PMS_P2;Temp;Humidity;BMP_temperature;BMP_pressure;BME280_temperature;BME280_humidity;BME280_pressure;Samples;Min_cycle;Max_cycle;Signal;HPM_P1;HPM_P2
2022/06/27 00:00:16;;;;;;;8.70;7.80;;;;;;;19.30;100.00;98927.66;5032329;28;20625;-81
2022/06/27 00:02:44;;;;;;;11.43;7.43;;;;;;;19.20;100.00;98939.47;5031989;28;20214;-80
2022/06/27 00:05:14;;;;;;;8.60;7.83;;;;;;;19.14;100.00;98957.94;5035772;28;20304;-80
2022/06/27 00:07:42;;;;;;;9.63;8.43;;;;;;;18.96;100.00;98962.50;5030331;28;20224;-80
2022/06/27 00:10:11;;;;;;;8.43;7.33;;;;;;;19.07;100.00;98978.34;5032022;28;20281;-80
2022/06/27 00:12:42;;;;;;;9.03;7.53;;;;;;;19.04;100.00;98978.66;5030960;28;20213;-81
2022/06/27 00:15:11;;;;;;;9.10;8.17;;;;;;;18.89;100.00;98990.94;5032416;28;20198;-81
2022/06/27 00:17:40;;;;;;;9.43;8.53;;;;;;;18.86;100.00;99007.38;5031278;28;20250;-81
2022/06/27 00:20:10;;;;;;;11.10;8.43;;;;;;;18.91;100.00;99015.78;5031920;28;20206;-81
2022/06/27 00:22:40;;;;;;;8.80;8.00;;;;;;;18.88;100.00;99006.22;5032064;28;20210;-80
2022/06/27 00:25:10;;;;;;;8.43;7.57;;;;;;;18.89;100.00;99015.09;5030057;28;20262;-81
2022/06/27 00:27:41;;;;;;;7.67;6.70;;;;;;;18.78;100.00;99034.13;5026348;28;20193;-81
2022/06/27 00:30:12;;;;;;;6.87;6.27;;;;;;;18.82;100.00;99040.91;5032020;28;20206;-81
2022/06/27 00:32:40;;;;;;;7.80;5.70;;;;;;;18.76;100.00;99050.38;5031876;28;20225;-80
2022/06/27 00:35:10;;;;;;;6.87;5.10;;;;;;;18.72;100.00;99065.13;5031343;28;20245;-81
2022/06/27 00:37:38;;;;;;;5.30;4.80;;;;;;;18.65;100.00;99063.19;5029345;28;20201;-81
2022/06/27 00:40:08;;;;;;;5.63;4.70;;;;;;;18.54;100.00;99062.38;5031682;28;20202;-81
2022/06/27 00:42:39;;;;;;;6.53;4.53;;;;;;;18.54;100.00;99062.38;5037384;28;20194;-81
2022/06/27 00:45:10;;;;;;;4.80;4.10;;;;;;;18.62;100.00;99042.81;5031702;28;20384;-81
2022/06/27 00:47:39;;;;;;;4.23;3.77;;;;;;;18.73;100.00;99039.13;5079279;28;20225;-81
2022/06/27 00:50:09;;;;;;;4.73;4.23;;;;;;;18.78;100.00;99032.28;5031988;28;20193;-81
2022/06/27 00:52:38;;;;;;;5.27;4.77;;;;;;;18.84;100.00;99025.47;5034413;28;20185;-81
2022/06/27 00:55:08;;;;;;;5.30;4.37;;;;;;;18.86;100.00;99024.31;5092555;28;20305;-81
2022/06/27 00:57:37;;;;;;;5.83;4.00;;;;;;;18.87;100.00;99033.22;5089615;28;20705;-81
2022/06/27 01:00:08;;;;;;;6.10;4.27;;;;;;;18.93;100.00;99037.13;5090688;28;20718;-80
2022/06/27 01:02:37;;;;;;;7.40;4.10;;;;;;;18.94;100.00;99033.44;5087438;28;20207;-81
2022/06/27 01:05:08;;;;;;;5.00;4.50;;;;;;;18.98;100.00;99032.13;5092482;28;20356;-81
2022/06/27 01:07:36;;;;;;;5.40;4.90;;;;;;;19.06;100.00;99027.66;5087367;28;20278;-80
2022/06/27 01:10:06;;;;;;;5.73;5.20;;;;;;;18.98;100.00;99005.28;5088389;28;20200;-81
2022/06/27 01:12:34;;;;;;;6.57;5.97;;;;;;;18.82;100.00;98996.13;5078816;28;20202;-81
2022/06/27 01:15:06;;;;;;;7.10;6.37;;;;;;;18.91;100.00;99012.25;5010914;28;20218;-80
2022/06/27 01:17:35;;;;;;;7.43;6.60;;;;;;;19.05;100.00;99009.88;5031065;28;20232;-81
2022/06/27 01:20:08;;;;;;;7.30;6.43;;;;;;;19.21;100.00;98997.59;5035242;27;20222;-80
2022/06/27 01:22:38;;;;;;;7.00;5.73;;;;;;;19.23;100.00;98999.09;5031800;28;20272;-81
2022/06/27 01:25:08;;;;;;;6.70;5.87;;;;;;;19.08;100.00;99003.34;5033760;28;20212;-81
2022/06/27 01:27:38;;;;;;;5.40;4.90;;;;;;;19.27;100.00;99007.69;5028669;28;20204;-81
2022/06/27 01:30:08;;;;;;;7.70;5.00;;;;;;;19.32;100.00;98979.38;5034531;28;20653;-81
2022/06/27 01:32:36;;;;;;;5.70;5.00;;;;;;;19.01;100.00;98981.66;5030639;28;20196;-80
2022/06/27 01:35:07;;;;;;;7.60;5.10;;;;;;;18.93;100.00;98976.22;5029781;28;20229;-81
2022/06/27 01:37:38;;;;;;;5.63;4.50;;;;;;;19.03;100.00;98979.66;5029307;28;20202;-81
2022/06/27 01:40:08;;;;;;;12.03;4.30;;;;;;;18.94;100.00;98995.88;5037239;28;20285;-80
2022/06/27 01:42:37;;;;;;;8.70;3.73;;;;;;;18.99;100.00;98996.22;5029072;28;20205;-81
2022/06/27 01:45:07;;;;;;;5.70;5.10;;;;;;;18.75;100.00;99012.97;5034918;28;20243;-80
2022/06/27 01:47:36;;;;;;;4.70;4.30;;;;;;;18.53;100.00;99016.94;5047179;27;20317;-81
2022/06/27 01:50:05;;;;;;;6.43;4.73;;;;;;;18.63;100.00;99019.53;5027786;28;20186;-81
2022/06/27 01:52:35;;;;;;;5.90;4.70;;;;;;;18.84;100.00;99009.38;5027972;28;20221;-81
2022/06/27 01:55:05;;;;;;;5.67;5.10;;;;;;;18.95;100.00;98987.66;5034003;27;20247;-82
2022/06/27 01:57:33;;;;;;;5.77;5.13;;;;;;;19.13;100.00;98982.25;5045921;28;20712;-81
2022/06/27 02:00:01;;;;;;;5.47;4.97;;;;;;;19.07;100.00;98967.59;5047909;28;20292;-81
2022/06/27 02:02:29;;;;;;;5.17;4.10;;;;;;;19.17;100.00;98960.28;5050110;28;20341;-81
2022/06/27 02:04:56;;;;;;;5.20;4.37;;;;;;;19.23;100.00;98949.94;5042409;28;20195;-81
2022/06/27 02:07:25;;;;;;;5.57;4.13;;;;;;;19.24;100.00;98946.25;5044337;28;20200;-82
2022/06/27 02:09:54;;;;;;;4.70;4.20;;;;;;;19.40;100.00;98932.91;4972108;28;20355;-82
2022/06/27 02:12:26;;;;;;;4.73;4.33;;;;;;;19.37;100.00;98931.38;4968787;28;20187;-82
2022/06/27 02:14:55;;;;;;;5.33;4.20;;;;;;;19.36;100.00;98937.75;4966425;28;20238;-82
2022/06/27 02:17:24;;;;;;;5.33;4.33;;;;;;;19.28;100.00;98934.16;4970075;28;20211;-81
2022/06/27 02:19:52;;;;;;;4.97;4.30;;;;;;;19.42;100.00;98929.06;4970441;28;20217;-81
2022/06/27 02:22:22;;;;;;;5.30;4.37;;;;;;;19.42;100.00;98929.06;4987066;28;20203;-81
2022/06/27 02:24:50;;;;;;;9.87;5.60;;;;;;;19.36;100.00;98929.69;4978078;28;20196;-81
2022/06/27 02:27:19;;;;;;;5.30;4.57;;;;;;;19.25;100.00;98910.31;4958626;28;20197;-81
2022/06/27 02:29:49;;;;;;;5.17;4.60;;;;;;;19.13;100.00;98904.38;5029154;28;20198;-82
2022/06/27 02:32:17;;;;;;;7.00;4.70;;;;;;;19.16;100.00;98894.16;5031885;28;20202;-82
2022/06/27 02:34:46;;;;;;;6.07;5.20;;;;;;;19.13;100.00;98886.44;5031323;28;20236;-82
2022/06/27 02:37:14;;;;;;;5.37;4.87;;;;;;;19.16;100.00;98863.78;5027454;28;20288;-81
2022/06/27 02:39:47;;;;;;;6.80;4.90;;;;;;;19.12;100.00;98860.59;5032448;28;20193;-81
2022/06/27 02:42:18;;;;;;;5.33;4.50;;;;;;;19.15;100.00;98841.47;5031020;28;20205;-81
2022/06/27 02:44:49;;;;;;;6.53;5.70;;;;;;;19.11;100.00;98828.53;5028459;28;20274;-82
2022/06/27 02:47:20;;;;;;;6.93;6.10;;;;;;;19.11;100.00;98823.16;5028963;28;20222;-81
2022/06/27 02:49:49;;;;;;;11.10;8.10;;;;;;;19.16;100.00;98821.66;5033297;28;20206;-82
2022/06/27 02:52:20;;;;;;;11.37;9.87;;;;;;;18.88;100.00;98817.50;5026135;28;20613;-82
2022/06/27 02:54:55;;;;;;;7.00;5.73;;;;;;;18.92;100.00;98808.13;5030752;28;20218;-81
2022/06/27 02:57:33;;;;;;;7.33;6.10;;;;;;;18.86;100.00;98793.50;5031566;28;20197;-81
2022/06/27 03:00:07;;;;;;;7.50;6.63;;;;;;;18.70;100.00;98796.09;5033904;28;20259;-81
2022/06/27 03:02:39;;;;;;;8.83;6.97;;;;;;;18.62;100.00;98795.16;5027484;28;20201;-81
2022/06/27 03:05:08;;;;;;;8.60;7.70;;;;;;;18.63;100.00;98791.50;5027067;28;20213;-81
2022/06/27 03:07:40;;;;;;;10.00;9.10;;;;;;;18.54;100.00;98793.28;5009457;28;20194;-81
2022/06/27 03:10:10;;;;;;;13.07;10.40;;;;;;;18.39;100.00;98784.97;5033338;28;20201;-80
2022/06/27 03:12:38;;;;;;;11.30;10.20;;;;;;;18.46;100.00;98771.78;5029467;28;20280;-81
2022/06/27 03:15:09;;;;;;;12.70;11.23;;;;;;;18.43;100.00;98770.25;5033304;28;20225;-81
2022/06/27 03:17:38;;;;;;;11.57;10.33;;;;;;;18.51;100.00;98764.06;5048839;27;20201;-81
2022/06/27 03:20:07;;;;;;;12.07;10.97;;;;;;;18.56;100.00;98743.84;5033978;28;20335;-83
2022/06/27 03:22:36;;;;;;;10.80;9.80;;;;;;;18.47;100.00;98727.84;5049470;27;20224;-81
2022/06/27 03:25:05;;;;;;;11.47;10.37;;;;;;;18.50;100.00;98724.84;5037943;28;20190;-81
2022/06/27 03:27:36;;;;;;;11.93;10.87;;;;;;;18.36;100.00;98731.66;5075192;28;20200;-81
2022/06/27 03:30:05;;;;;;;11.53;10.43;;;;;;;18.41;100.00;98766.88;5067206;28;20238;-82
2022/06/27 03:32:35;;;;;;;11.83;10.57;;;;;;;18.45;100.00;98791.56;5075396;28;20192;-81
2022/06/27 03:35:03;;;;;;;11.83;10.67;;;;;;;18.50;100.00;98787.38;5075848;28;20247;-82
2022/06/27 03:37:32;;;;;;;11.87;10.67;;;;;;;18.64;100.00;98804.75;5069551;28;20188;-81
2022/06/27 03:40:00;;;;;;;9.97;9.07;;;;;;;18.51;100.00;98815.03;5064554;28;20261;-81
2022/06/27 03:42:29;;;;;;;9.53;8.53;;;;;;;18.59;100.00;98817.78;5068858;28;20228;-81
2022/06/27 03:44:57;;;;;;;9.23;8.20;;;;;;;18.55;100.00;98806.53;5068440;28;20207;-81
2022/06/27 03:47:26;;;;;;;8.77;7.87;;;;;;;18.54;100.00;98795.97;5065321;28;20221;-81
2022/06/27 03:50:03;;;;;;;9.80;8.33;;;;;;;18.64;100.00;98787.81;5049588;28;20311;-81
2022/06/27 03:52:32;;;;;;;8.03;7.23;;;;;;;18.79;100.00;98787.09;5015378;28;20218;-82
2022/06/27 03:55:00;;;;;;;8.30;7.60;;;;;;;18.86;100.00;98777.41;4989259;28;20215;-82
2022/06/27 03:57:29;;;;;;;7.97;7.10;;;;;;;18.91;100.00;98776.91;4988154;28;20218;-81
2022/06/27 03:59:57;;;;;;;7.97;7.17;;;;;;;18.91;100.00;98794.84;4992984;28;20317;-81
2022/06/27 04:02:27;;;;;;;7.27;6.10;;;;;;;18.85;100.00;98793.66;4995026;28;20199;-79
2022/06/27 04:04:57;;;;;;;7.13;6.53;;;;;;;18.89;100.00;98776.22;4995051;28;20214;-81
2022/06/27 04:07:25;;;;;;;6.77;6.07;;;;;;;18.91;100.00;98778.75;4992798;28;20196;-81
2022/06/27 04:09:54;;;;;;;11.47;6.83;;;;;;;18.82;100.00;98797.53;4997614;28;20199;-81
2022/06/27 04:12:22;;;;;;;7.30;5.90;;;;;;;18.70;100.00;98798.75;4994446;28;20265;-81
2022/06/27 04:14:51;;;;;;;6.70;6.00;;;;;;;18.63;100.00;98808.44;4992788;28;20199;-81
2022/06/27 04:17:20;;;;;;;7.00;6.27;;;;;;;18.73;100.00;98809.19;4991021;28;20226;-81
2022/06/27 04:19:48;;;;;;;6.63;6.03;;;;;;;18.64;100.00;98814.66;4990327;28;20207;-81
2022/06/27 04:22:18;;;;;;;6.97;6.10;;;;;;;18.54;100.00;98814.75;4990171;28;20215;-81
2022/06/27 04:24:47;;;;;;;7.00;6.30;;;;;;;18.54;100.00;98812.06;4990547;28;20198;-80
2022/06/27 04:27:27;;;;;;;6.83;6.23;;;;;;;18.54;100.00;98817.44;4989499;28;20203;-81
2022/06/27 04:30:08;;;;;;;8.70;6.47;;;;;;;18.55;100.00;98824.47;4992850;28;20195;-81
2022/06/27 04:32:36;;;;;;;7.57;6.87;;;;;;;18.54;100.00;98823.63;4992601;28;20203;-81
2022/06/27 04:35:05;;;;;;;8.77;7.10;;;;;;;18.52;100.00;98825.59;4993031;28;20276;-81
2022/06/27 04:37:35;;;;;;;7.47;6.77;;;;;;;18.56;100.00;98827.00;5071031;28;20195;-81
2022/06/27 04:40:05;;;;;;;7.97;7.27;;;;;;;18.53;100.00;98829.16;4991607;28;20255;-81
2022/06/27 04:42:33;;;;;;;8.13;6.83;;;;;;;18.52;100.00;98830.13;4991159;28;20204;-81
2022/06/27 04:45:02;;;;;;;9.00;7.40;;;;;;;18.55;100.00;98824.47;4990543;28;20595;-81
2022/06/27 04:47:30;;;;;;;8.37;7.33;;;;;;;18.62;100.00;98820.13;5012561;28;20241;-81
2022/06/27 04:50:00;;;;;;;8.90;7.70;;;;;;;18.57;100.00;98826.00;5031567;28;20202;-80
2022/06/27 04:52:29;;;;;;;10.57;7.40;;;;;;;18.58;100.00;98821.47;5025687;28;20613;-80
2022/06/27 04:55:00;;;;;;;8.77;7.80;;;;;;;18.55;100.00;98825.31;5035509;28;20208;-81
2022/06/27 04:57:28;;;;;;;8.17;7.37;;;;;;;18.62;100.00;98835.41;5030539;28;20217;-81
2022/06/27 04:59:57;;;;;;;8.07;7.33;;;;;;;18.53;100.00;98840.72;5032534;28;20233;-81
2022/06/27 05:02:26;;;;;;;8.13;7.33;;;;;;;18.63;100.00;98829.06;5031548;28;20307;-81
2022/06/27 05:04:54;;;;;;;8.70;7.80;;;;;;;18.56;100.00;98829.69;5027243;28;20254;-81
2022/06/27 05:07:23;;;;;;;9.00;7.33;;;;;;;18.58;100.00;98830.34;5026782;28;20246;-80
2022/06/27 05:09:52;;;;;;;7.90;7.07;;;;;;;18.66;100.00;98834.97;5031151;28;20224;-81
2022/06/27 05:12:22;;;;;;;7.60;6.90;;;;;;;18.67;100.00;98828.59;5028985;28;20220;-81
2022/06/27 05:14:50;;;;;;;7.70;7.07;;;;;;;18.61;100.00;98826.50;5032016;28;20190;-81
2022/06/27 05:17:24;;;;;;;6.90;6.30;;;;;;;18.68;100.00;98835.66;5027330;28;20221;-81
2022/06/27 05:19:52;;;;;;;7.77;7.07;;;;;;;18.56;100.00;98848.47;5027783;28;20297;-81
2022/06/27 05:22:21;;;;;;;8.27;7.47;;;;;;;18.62;100.00;98854.19;5047217;27;20186;-81
2022/06/27 05:24:49;;;;;;;10.03;7.27;;;;;;;18.73;100.00;98853.97;5030677;28;20202;-81
2022/06/27 05:27:18;;;;;;;7.87;7.07;;;;;;;18.70;100.00;98854.28;5029879;28;20194;-81
2022/06/27 05:29:50;;;;;;;7.30;6.20;;;;;;;18.80;100.00;98871.09;5030864;28;20198;-81
2022/06/27 05:32:18;;;;;;;7.43;6.73;;;;;;;18.84;100.00;98875.19;5031037;28;20196;-81
2022/06/27 05:34:46;;;;;;;8.83;6.67;;;;;;;18.97;100.00;98883.63;5030680;28;20232;-80
2022/06/27 05:37:15;;;;;;;7.53;6.20;;;;;;;18.99;100.00;98900.44;5030468;28;20300;-81
2022/06/27 05:39:45;;;;;;;7.67;5.67;;;;;;;18.94;100.00;98891.19;5030975;28;20281;-80
2022/06/27 05:42:13;;;;;;;6.67;5.90;;;;;;;19.03;100.00;98895.59;5029185;28;20201;-80
2022/06/27 05:44:42;;;;;;;6.20;5.60;;;;;;;19.07;100.00;98910.38;5032984;28;20209;-81
2022/06/27 05:47:12;;;;;;;6.83;5.43;;;;;;;19.22;100.00;98907.97;5032074;28;20225;-81
2022/06/27 05:49:40;;;;;;;6.13;5.27;;;;;;;19.20;100.00;98918.00;5029230;28;20202;-81
2022/06/27 05:52:09;;;;;;;8.03;5.20;;;;;;;19.03;100.00;98925.97;5027835;28;20201;-80
2022/06/27 05:54:38;;;;;;;5.40;4.87;;;;;;;19.20;100.00;98920.69;5032989;28;20202;-80
2022/06/27 05:57:06;;;;;;;5.87;5.10;;;;;;;19.20;100.00;98916.16;4996440;28;20217;-82
2022/06/27 05:59:34;;;;;;;7.80;5.33;;;;;;;19.23;100.00;98907.81;5027524;28;20205;-81
2022/06/27 06:02:03;;;;;;;5.97;5.40;;;;;;;19.22;100.00;98899.91;5033443;28;20279;-81
2022/06/27 06:04:33;;;;;;;5.97;5.37;;;;;;;19.30;100.00;98898.13;5029503;28;20205;-80
2022/06/27 06:07:01;;;;;;;6.10;5.50;;;;;;;19.34;100.00;98902.16;5030492;28;20194;-81
2022/06/27 06:09:32;;;;;;;6.60;5.77;;;;;;;19.34;100.00;98907.53;4996720;28;20246;-80
2022/06/27 06:12:01;;;;;;;6.57;5.97;;;;;;;19.36;100.00;98901.97;5031033;28;20285;-80
2022/06/27 06:14:29;;;;;;;7.00;5.47;;;;;;;19.35;100.00;98894.94;5027845;28;20202;-80
2022/06/27 06:16:58;;;;;;;6.90;5.63;;;;;;;19.48;100.00;98905.22;5033205;28;20224;-81
2022/06/27 06:19:26;;;;;;;6.07;5.20;;;;;;;19.45;100.00;98927.88;5029999;28;20197;-80
2022/06/27 06:21:56;;;;;;;10.00;5.90;;;;;;;19.43;100.00;98933.41;5032152;28;20216;-80
2022/06/27 06:24:25;;;;;;;10.70;6.57;;;;;;;19.15;100.00;98946.19;5026320;28;20216;-80
2022/06/27 06:27:00;;;;;;;9.20;5.50;;;;;;;19.16;100.00;98947.03;5029936;28;20205;-80
2022/06/27 06:29:29;;;;;;;6.20;5.57;;;;;;;19.39;100.00;98940.09;5026373;28;20271;-80
2022/06/27 06:31:57;;;;;;;5.83;5.30;;;;;;;19.40;100.00;98935.59;5030265;28;20194;-80
2022/06/27 06:34:33;;;;;;;6.30;5.57;;;;;;;19.52;100.00;98947.75;5025377;28;20201;-80
2022/06/27 06:37:05;;;;;;;6.27;5.67;;;;;;;19.59;100.00;98939.91;5029748;28;20380;-80
2022/06/27 06:39:40;;;;;;;6.37;5.77;;;;;;;19.48;100.00;98924.03;5013270;28;20202;-81
2022/06/27 06:42:09;;;;;;;7.67;5.43;;;;;;;19.59;100.00;98903.16;5031472;28;20198;-81
2022/06/27 06:44:38;;;;;;;5.87;5.27;;;;;;;19.67;100.00;98907.69;5028612;28;20290;-81
2022/06/27 06:47:07;;;;;;;6.00;5.10;;;;;;;19.73;100.00;98909.75;5033772;28;20312;-80
2022/06/27 06:49:39;;;;;;;6.30;5.10;;;;;;;19.84;100.00;98900.53;5023938;28;20202;-80
2022/06/27 06:52:11;;;;;;;6.73;5.50;;;;;;;19.89;100.00;98917.03;5032018;28;20250;-80
2022/06/27 06:54:40;;;;;;;6.50;5.70;;;;;;;19.31;100.00;98942.78;5030756;28;20201;-81
2022/06/27 06:57:09;;;;;;;6.63;5.20;;;;;;;19.35;100.00;98951.34;5029342;28;20225;-80
2022/06/27 06:59:37;;;;;;;5.47;4.73;;;;;;;19.44;100.00;98947.69;5028138;28;20202;-80
2022/06/27 07:02:07;;;;;;;5.67;5.00;;;;;;;19.58;100.00;98965.09;5033367;28;20281;-81
2022/06/27 07:04:36;;;;;;;4.80;4.40;;;;;;;19.76;100.00;98976.59;5031981;28;20198;-80
2022/06/27 07:07:05;;;;;;;4.73;4.20;;;;;;;19.87;100.00;98975.47;5032880;28;20198;-80
2022/06/27 07:09:35;;;;;;;6.03;4.80;;;;;;;19.84;100.00;98982.00;5031060;28;20205;-80
2022/06/27 07:12:05;;;;;;;6.77;5.40;;;;;;;19.80;100.00;98991.41;5027743;28;20197;-80
2022/06/27 07:14:33;;;;;;;6.63;4.90;;;;;;;19.36;100.00;98991.47;5028125;28;20198;-80
2022/06/27 07:17:02;;;;;;;5.57;5.07;;;;;;;19.48;100.00;98997.41;5032976;28;20217;-81
2022/06/27 07:19:30;;;;;;;5.90;5.30;;;;;;;19.11;100.00;99001.22;5034035;28;20214;-80
2022/06/27 07:21:59;;;;;;;5.33;4.70;;;;;;;19.26;100.00;99004.16;5027778;28;20243;-80
2022/06/27 07:24:28;;;;;;;7.00;5.37;;;;;;;19.30;100.00;99008.22;5032853;28;20201;-80
2022/06/27 07:26:59;;;;;;;6.83;5.50;;;;;;;19.29;100.00;99006.53;5033311;28;20221;-79
2022/06/27 07:29:27;;;;;;;6.07;5.03;;;;;;;19.35;100.00;98987.09;5032656;28;20190;-80
2022/06/27 07:31:55;;;;;;;6.20;5.30;;;;;;;19.39;100.00;98984.94;5032678;28;20225;-80
2022/06/27 07:34:25;;;;;;;5.97;5.37;;;;;;;19.27;100.00;98994.25;5028148;28;20197;-81
2022/06/27 07:36:56;;;;;;;5.97;5.37;;;;;;;19.42;100.00;98980.09;5034520;28;20197;-80
2022/06/27 07:39:24;;;;;;;6.97;5.60;;;;;;;19.47;100.00;98966.16;5030941;28;20194;-80
2022/06/27 07:41:53;;;;;;;5.53;5.03;;;;;;;19.60;100.00;98971.16;5028944;28;20221;-81
2022/06/27 07:44:24;;;;;;;6.13;5.53;;;;;;;19.52;100.00;98973.78;5031455;28;20206;-80
2022/06/27 07:46:53;;;;;;;5.53;4.83;;;;;;;19.70;100.00;98979.94;5032253;28;20237;-80
2022/06/27 07:49:21;;;;;;;6.20;4.80;;;;;;;19.68;100.00;98980.06;5032534;28;20281;-81
2022/06/27 07:51:50;;;;;;;5.70;4.57;;;;;;;19.79;100.00;98987.03;5030423;28;20675;-81
2022/06/27 07:54:19;;;;;;;4.80;4.40;;;;;;;19.75;100.00;98995.56;5029648;28;20209;-80
2022/06/27 07:56:47;;;;;;;5.07;4.57;;;;;;;19.84;100.00;98998.13;5036797;27;20190;-81
2022/06/27 07:59:33;;;;;;;4.50;4.03;;;;;;;19.98;100.00;99000.25;5032040;28;20205;-81
2022/06/27 08:02:01;;;;;;;5.60;4.67;;;;;;;20.18;100.00;98997.28;5030755;28;20657;-81
2022/06/27 08:04:29;;;;;;;5.33;4.50;;;;;;;20.19;100.00;98998.97;5036695;27;20197;-79
2022/06/27 08:06:58;;;;;;;4.23;3.93;;;;;;;20.32;100.00;99006.56;5035749;28;20194;-79
2022/06/27 08:09:26;;;;;;;3.77;3.43;;;;;;;20.03;100.00;99013.19;5023715;28;20205;-81
2022/06/27 08:11:55;;;;;;;4.47;4.07;;;;;;;19.76;100.00;99010.69;5032316;28;20291;-81
2022/06/27 08:14:23;;;;;;;4.73;3.70;;;;;;;20.07;100.00;99024.44;5031211;28;20655;-81
2022/06/27 08:16:54;;;;;;;4.63;4.23;;;;;;;20.45;100.00;99017.72;5032180;28;20669;-82
2022/06/27 08:19:23;;;;;;;4.53;4.13;;;;;;;20.49;100.00;99006.47;5029840;28;20214;-81
2022/06/27 08:21:51;;;;;;;4.27;3.87;;;;;;;20.56;100.00;99001.28;5036081;27;20200;-81
2022/06/27 08:24:20;;;;;;;4.80;4.30;;;;;;;20.21;100.00;98989.72;5030940;28;20229;-81
2022/06/27 08:26:50;;;;;;;6.73;4.83;;;;;;;20.36;100.00;98992.59;5028988;28;20190;-81
2022/06/27 08:29:20;;;;;;;5.87;4.80;;;;;;;20.38;100.00;98979.00;5031505;28;20257;-81
2022/06/27 08:31:52;;;;;;;5.90;5.30;;;;;;;20.73;100.00;98978.72;5032219;28;20201;-81
2022/06/27 08:34:23;;;;;;;6.10;5.00;;;;;;;21.04;100.00;98976.22;5028323;28;20254;-80
2022/06/27 08:36:51;;;;;;;6.87;5.20;;;;;;;21.12;100.00;98986.97;5029133;28;20229;-81
2022/06/27 08:39:21;;;;;;;5.50;5.00;;;;;;;21.49;100.00;98974.81;5031573;28;20228;-81
2022/06/27 08:41:49;;;;;;;5.82;5.32;;;;;;;21.49;100.00;98971.28;5037983;27;20205;-81
2022/06/27 08:44:19;;;;;;;5.57;5.10;;;;;;;21.76;100.00;98962.78;5027291;28;20205;-81
2022/06/27 08:46:47;;;;;;;5.23;4.03;;;;;;;21.91;100.00;98955.66;5027274;28;20737;-81
2022/06/27 08:49:16;;;;;;;5.22;4.65;;;;;;;21.99;100.00;98944.81;5031454;28;20652;-81
2022/06/27 08:51:46;;;;;;;6.70;4.30;;;;;;;22.13;100.00;98948.66;5028698;28;20202;-81
2022/06/27 08:54:14;;;;;;;4.00;3.70;;;;;;;22.31;100.00;98944.84;5031514;28;20202;-81
2022/06/27 08:56:43;;;;;;;4.18;3.78;;;;;;;22.53;100.00;98942.16;5032194;28;20259;-79
2022/06/27 08:59:11;;;;;;;4.28;3.45;;;;;;;22.64;100.00;98951.69;5033418;28;20249;-81
2022/06/27 09:01:47;;;;;;;3.42;3.10;;;;;;;22.07;100.00;98953.91;5030793;28;20201;-81
2022/06/27 09:04:15;;;;;;;3.35;3.05;;;;;;;22.41;100.00;98954.38;5035697;27;20289;-80
2022/06/27 09:06:58;;;;;;;3.58;2.95;;;;;;;22.69;100.00;98946.59;5031483;28;20189;-81
2022/06/27 09:09:27;;;;;;;4.38;2.70;;;;;;;21.69;100.00;98961.78;5030186;28;20194;-80
2022/06/27 09:11:57;;;;;;;3.85;3.08;;;;;;;21.67;100.00;98953.88;5025372;28;20186;-80
2022/06/27 09:14:35;;;;;;;4.30;3.08;;;;;;;21.41;100.00;98945.19;5030197;28;20216;-80
2022/06/27 09:17:09;;;;;;;3.40;3.10;;;;;;;21.52;100.00;98947.56;5031258;28;20281;-80
2022/06/27 09:19:46;;;;;;;4.03;3.30;;;;;;;21.69;100.00;98945.63;5093867;28;20217;-80
2022/06/27 09:22:17;;;;;;;3.93;3.10;;;;;;;21.94;100.00;98941.81;5026939;28;20198;-81
2022/06/27 09:25:04;;;;;;;3.50;3.20;;;;;;;21.66;100.00;98951.38;5035763;28;20202;-80
2022/06/27 09:27:42;;;;;;;4.03;3.17;;;;;;;21.72;100.00;98964.16;5033400;28;20202;-80
2022/06/27 09:30:36;;;;;;;3.50;3.20;;;;;;;21.81;100.00;98975.72;5028167;28;20696;-80
2022/06/27 09:33:09;;;;;;;4.33;3.17;;;;;;;21.95;100.00;98975.84;5030285;28;20186;-80
2022/06/27 09:35:39;;;;;;;3.90;3.50;;;;;;;21.62;100.00;98971.59;5027930;28;20206;-80
2022/06/27 09:38:10;;;;;;;3.87;3.53;;;;;;;21.95;100.00;98969.63;5030634;28;20205;-80
2022/06/27 09:40:41;;;;;;;5.15;3.22;;;;;;;22.19;100.00;98972.22;5027057;28;20198;-80
2022/06/27 09:43:10;;;;;;;5.40;3.70;;;;;;;22.53;100.00;98971.00;5029121;28;20193;-80
2022/06/27 09:45:38;;;;;;;2.70;2.50;;;;;;;22.47;100.00;98977.13;5029092;28;20198;-80
2022/06/27 09:48:16;;;;;;;4.53;2.90;;;;;;;22.75;100.00;98977.44;5026878;28;20233;-80
2022/06/27 09:50:47;;;;;;;3.40;2.75;;;;;;;22.86;100.00;98982.44;5046864;27;20198;-80
2022/06/27 09:53:18;;;;;;;2.90;2.60;;;;;;;23.02;100.00;98981.47;5030604;28;20666;-80
2022/06/27 09:55:48;;;;;;;2.63;2.42;;;;;;;23.10;100.00;98993.03;5030428;28;20201;-80
2022/06/27 09:58:17;;;;;;;5.03;2.85;;;;;;;22.72;100.00;98985.91;5029026;28;20205;-80
2022/06/27 10:00:47;;;;;;;3.70;2.63;;;;;;;22.33;100.00;98981.44;5027522;28;20649;-80
2022/06/27 10:03:16;;;;;;;3.00;2.70;;;;;;;22.52;100.00;98991.75;5030229;28;20270;-80
2022/06/27 10:05:45;;;;;;;3.88;2.60;;;;;;;22.69;100.00;98979.00;5030273;28;20225;-80
2022/06/27 10:08:16;;;;;;;3.90;3.00;;;;;;;21.84;100.00;98978.09;5030059;28;20194;-79
2022/06/27 10:11:08;;;;;;;3.65;2.50;;;;;;;22.19;100.00;98977.59;5036254;28;20212;-80
2022/06/27 10:13:38;;;;;;;3.47;2.72;;;;;;;22.23;100.00;98975.41;5029019;28;20277;-80
2022/06/27 10:16:10;;;;;;;3.25;2.50;;;;;;;21.92;100.00;98980.75;5034414;28;20240;-80
2022/06/27 10:19:14;;;;;;;4.43;2.83;;;;;;;22.07;100.00;98989.81;5033414;28;20224;-80
2022/06/27 10:21:47;;;;;;;3.67;2.80;;;;;;;22.07;100.00;98975.50;5049552;28;20644;-78
2022/06/27 10:24:34;;;;;;;2.78;2.58;;;;;;;22.10;100.00;98988.63;5032649;28;20190;-81
2022/06/27 10:27:06;;;;;;;3.47;2.83;;;;;;;22.06;100.00;98996.19;5024287;28;20205;-81
2022/06/27 10:29:46;;;;;;;3.50;2.60;;;;;;;22.21;100.00;98991.78;5029713;28;20194;-81
2022/06/27 10:32:41;;;;;;;3.37;2.60;;;;;;;22.42;100.00;98990.31;5033568;28;20209;-81
2022/06/27 10:35:13;;;;;;;3.65;3.30;;;;;;;22.59;100.00;99002.69;5029956;28;20660;-81
2022/06/27 10:37:43;;;;;;;3.50;3.20;;;;;;;23.05;100.00;99000.00;5028607;28;20259;-81
2022/06/27 10:40:52;;;;;;;6.10;3.28;;;;;;;23.72;100.00;98991.94;5026012;28;20229;-81
2022/06/27 10:43:46;;;;;;;3.30;3.00;;;;;;;23.81;100.00;98993.53;5028943;28;20281;-81
2022/06/27 10:46:43;;;;;;;4.75;2.92;;;;;;;23.78;100.00;98999.31;5029839;28;20193;-81
2022/06/27 10:49:26;;;;;;;3.97;2.83;;;;;;;23.43;100.00;99011.66;5036120;28;20201;-81
2022/06/27 10:52:14;;;;;;;4.13;2.90;;;;;;;22.93;100.00;99012.28;5028510;28;20324;-80
2022/06/27 10:54:44;;;;;;;3.38;2.92;;;;;;;22.76;100.00;99006.94;5029849;28;20293;-80
2022/06/27 10:57:13;;;;;;;3.63;2.88;;;;;;;22.58;100.00;99006.41;5028282;28;20629;-80
2022/06/27 11:00:02;;;;;;;3.92;3.03;;;;;;;23.60;100.00;99002.38;5024440;28;20221;-81
2022/06/27 11:02:33;;;;;;;4.53;2.72;;;;;;;22.92;100.00;99014.13;5032426;28;20194;-80
2022/06/27 11:05:02;;;;;;;4.10;2.15;;;;;;;23.12;100.00;99007.22;5042246;28;20206;-81
2022/06/27 11:07:30;;;;;;;3.97;2.47;;;;;;;23.14;100.00;99013.25;5027788;28;20202;-80
2022/06/27 11:09:58;;;;;;;2.85;2.50;;;;;;;22.91;100.00;99020.56;5027380;28;20201;-80
2022/06/27 11:12:33;;;;;;;2.20;1.95;;;;;;;22.61;100.00;99024.13;5028151;28;20220;-80
2022/06/27 11:15:04;;;;;;;2.45;2.25;;;;;;;22.76;100.00;99023.16;5026859;28;20201;-81
2022/06/27 11:17:37;;;;;;;3.33;2.30;;;;;;;22.13;100.00;99018.81;5079431;28;20209;-80
2022/06/27 11:20:25;;;;;;;2.57;2.20;;;;;;;22.15;100.00;99024.84;5029383;28;20214;-80
2022/06/27 11:23:11;;;;;;;4.03;1.97;;;;;;;22.26;100.00;99027.16;5029425;28;20200;-80
2022/06/27 11:25:41;;;;;;;2.37;2.17;;;;;;;22.18;100.00;99023.66;5029022;28;20205;-80
2022/06/27 11:33:59;;;;;;;2.67;2.47;;;;;;;22.19;100.00;99009.16;4968386;28;20188;-81
2022/06/27 11:36:27;;;;;;;2.67;2.40;;;;;;;22.59;100.00;99016.19;5000825;28;20209;-80
2022/06/27 11:38:57;;;;;;;3.37;3.00;;;;;;;22.60;100.00;99015.19;5025018;28;20205;-80
2022/06/27 11:41:28;;;;;;;3.95;3.53;;;;;;;22.56;100.00;99009.28;5031510;28;20277;-80
2022/06/27 11:43:58;;;;;;;4.00;3.60;;;;;;;22.43;100.00;99013.59;5042605;27;20202;-80
2022/06/27 11:46:33;;;;;;;4.37;3.60;;;;;;;22.63;100.00;99031.00;5034905;28;20204;-81